sensor_id;sensor_type;location;lat;lon;timestamp;temperature;humidity
18717;DHT22;9487;50.892;6.906;2024-01-27T00:00:20;5.50;1.00
18717;DHT22;9487;50.892;6.906;2024-01-27T00:02:46;5.50;1.00
18717;DHT22;9487;50.892;6.906;2024-01-27T00:05:13;5.60;1.00
18717;DHT22;9487;50.892;6.906;2024-01-27T00:07:40;5.70;1.00
18717;DHT22;9487;50.892;6.906;2024-01-27T00:10:09;5.90;1.00
18717;DHT22;9487;50.892;6.906;2024-01-27T00:12:36;6.00;1.00
18717;DHT22;9487;50.892;6.906;2024-01-27T00:15:06;6.00;1.00
18717;DHT22;9487;50.892;6.906;2024-01-27T00:17:33;6.20;1.00
18717;DHT22;9487;50.892;6.906;2024-01-27T00:20:01;6.20;1.00
18717;DHT22;9487;50.892;6.906;2024-01-27T00:22:28;6.20;1.00
18717;DHT22;9487;50.892;6.906;2024-01-27T00:24:55;6.20;1.00
18717;DHT22;9487;50.892;6.906;2024-01-27T00:27:23;6.10;1.00
18717;DHT22;9487;50.892;6.906;2024-01-27T00:29:50;5.90;1.00
18717;DHT22;9487;50.892;6.906;2024-01-27T00:32:17;5.70;1.00
18717;DHT22;9487;50.892;6.906;2024-01-27T00:34:44;5.70;1.00
18717;DHT22;9487;50.892;6.906;2024-01-27T00:37:10;5.60;1.00
18717;DHT22;9487;50.892;6.906;2024-01-27T00:39:37;5.50;1.00
18717;DHT22;9487;50.892;6.906;2024-01-27T00:42:04;5.50;1.00
18717;DHT22;9487;50.892;6.906;2024-01-27T00:44:32;5.50;1.00
18717;DHT22;9487;50.892;6.906;2024-01-27T00:46:59;5.40;1.00
18717;DHT22;9487;50.892;6.906;2024-01-27T00:49:26;5.40;1.00
18717;DHT22;9487;50.892;6.906;2024-01-27T00:51:53;5.40;1.00
18717;DHT22;9487;50.892;6.906;2024-01-27T00:54:19;5.30;1.00
18717;DHT22;9487;50.892;6.906;2024-01-27T00:56:46;5.30;1.00
18717;DHT22;9487;50.892;6.906;2024-01-27T00:59:14;5.30;1.00
18717;DHT22;9487;50.892;6.906;2024-01-27T01:01:42;5.30;1.00
18717;DHT22;9487;50.892;6.906;2024-01-27T01:04:09;5.30;1.00
18717;DHT22;9487;50.892;6.906;2024-01-27T01:06:38;5.30;1.00
18717;DHT22;9487;50.892;6.906;2024-01-27T01:09:05;5.30;1.00
18717;DHT22;9487;50.892;6.906;2024-01-27T01:11:32;5.30;1.00
18717;DHT22;9487;50.892;6.906;2024-01-27T01:13:59;5.30;1.00
18717;DHT22;9487;50.892;6.906;2024-01-27T01:16:26;5.20;1.00
18717;DHT22;9487;50.892;6.906;2024-01-27T01:18:54;5.20;1.00
18717;DHT22;9487;50.892;6.906;2024-01-27T01:21:21;5.10;1.00
18717;DHT22;9487;50.892;6.906;2024-01-27T01:23:48;5.00;1.00
18717;DHT22;9487;50.892;6.906;2024-01-27T01:26:15;5.00;1.00
18717;DHT22;9487;50.892;6.906;2024-01-27T01:28:41;4.90;1.00
18717;DHT22;9487;50.892;6.906;2024-01-27T01:31:08;5.00;1.00
18717;DHT22;9487;50.892;6.906;2024-01-27T01:33:35;5.00;1.00
18717;DHT22;9487;50.892;6.906;2024-01-27T01:36:04;5.00;1.00
18717;DHT22;9487;50.892;6.906;2024-01-27T01:38:31;4.90;1.00
18717;DHT22;9487;50.892;6.906;2024-01-27T01:40:58;4.80;1.00
18717;DHT22;9487;50.892;6.906;2024-01-27T01:43:24;4.70;1.00
18717;DHT22;9487;50.892;6.906;2024-01-27T01:45:52;4.90;1.00
18717;DHT22;9487;50.892;6.906;2024-01-27T01:48:19;5.00;1.00
18717;DHT22;9487;50.892;6.906;2024-01-27T01:50:46;4.80;1.00
18717;DHT22;9487;50.892;6.906;2024-01-27T01:53:15;4.60;1.00
18717;DHT22;9487;50.892;6.906;2024-01-27T01:55:41;4.70;1.00
18717;DHT22;9487;50.892;6.906;2024-01-27T01:58:08;4.80;1.00
18717;DHT22;9487;50.892;6.906;2024-01-27T02:00:35;4.80;1.00
18717;DHT22;9487;50.892;6.906;2024-01-27T02:03:02;4.70;1.00
18717;DHT22;9487;50.892;6.906;2024-01-27T02:05:31;4.70;1.00
18717;DHT22;9487;50.892;6.906;2024-01-27T02:07:57;4.80;1.00
18717;DHT22;9487;50.892;6.906;2024-01-27T02:10:27;4.70;1.00
18717;DHT22;9487;50.892;6.906;2024-01-27T02:13:01;4.70;1.00
18717;DHT22;9487;50.892;6.906;2024-01-27T02:15:28;4.50;1.00
18717;DHT22;9487;50.892;6.906;2024-01-27T02:17:55;4.60;1.00
18717;DHT22;9487;50.892;6.906;2024-01-27T02:20:22;4.60;1.00
18717;DHT22;9487;50.892;6.906;2024-01-27T02:22:49;4.80;1.00
18717;DHT22;9487;50.892;6.906;2024-01-27T02:25:17;4.80;1.00
18717;DHT22;9487;50.892;6.906;2024-01-27T02:27:44;4.80;1.00
18717;DHT22;9487;50.892;6.906;2024-01-27T02:30:11;4.70;1.00
18717;DHT22;9487;50.892;6.906;2024-01-27T02:32:38;4.80;1.00
18717;DHT22;9487;50.892;6.906;2024-01-27T02:35:05;4.80;1.00
18717;DHT22;9487;50.892;6.906;2024-01-27T02:37:33;4.70;1.00
18717;DHT22;9487;50.892;6.906;2024-01-27T02:40:00;4.70;1.00
18717;DHT22;9487;50.892;6.906;2024-01-27T02:42:28;4.50;1.00
18717;DHT22;9487;50.892;6.906;2024-01-27T02:44:54;4.70;1.00
18717;DHT22;9487;50.892;6.906;2024-01-27T02:47:21;4.80;1.00
18717;DHT22;9487;50.892;6.906;2024-01-27T02:49:48;4.70;1.00
18717;DHT22;9487;50.892;6.906;2024-01-27T02:52:15;4.70;1.00
18717;DHT22;9487;50.892;6.906;2024-01-27T02:54:42;4.70;1.00
18717;DHT22;9487;50.892;6.906;2024-01-27T02:57:08;4.70;1.00
18717;DHT22;9487;50.892;6.906;2024-01-27T02:59:37;4.60;1.00
18717;DHT22;9487;50.892;6.906;2024-01-27T03:02:04;4.60;1.00
18717;DHT22;9487;50.892;6.906;2024-01-27T03:04:31;4.70;1.00
18717;DHT22;9487;50.892;6.906;2024-01-27T03:06:58;4.70;1.00
18717;DHT22;9487;50.892;6.906;2024-01-27T03:09:25;4.60;1.00
18717;DHT22;9487;50.892;6.906;2024-01-27T03:11:51;4.60;1.00
18717;DHT22;9487;50.892;6.906;2024-01-27T03:14:18;4.60;1.00
18717;DHT22;9487;50.892;6.906;2024-01-27T03:16:46;4.60;1.00
18717;DHT22;9487;50.892;6.906;2024-01-27T03:19:13;4.60;1.00
18717;DHT22;9487;50.892;6.906;2024-01-27T03:21:40;4.60;1.00
18717;DHT22;9487;50.892;6.906;2024-01-27T03:24:07;4.60;1.00
18717;DHT22;9487;50.892;6.906;2024-01-27T03:26:34;4.50;1.00
18717;DHT22;9487;50.892;6.906;2024-01-27T03:29:01;4.50;1.00
18717;DHT22;9487;50.892;6.906;2024-01-27T03:31:30;4.50;1.00
18717;DHT22;9487;50.892;6.906;2024-01-27T03:33:58;4.50;1.00
18717;DHT22;9487;50.892;6.906;2024-01-27T03:36:26;4.50;1.00
18717;DHT22;9487;50.892;6.906;2024-01-27T03:38:53;4.50;1.00
18717;DHT22;9487;50.892;6.906;2024-01-27T03:41:20;4.50;1.00
18717;DHT22;9487;50.892;6.906;2024-01-27T03:43:48;4.50;1.00
18717;DHT22;9487;50.892;6.906;2024-01-27T03:46:15;4.50;1.00
18717;DHT22;9487;50.892;6.906;2024-01-27T03:48:42;4.50;1.00
18717;DHT22;9487;50.892;6.906;2024-01-27T03:51:10;4.50;1.00
18717;DHT22;9487;50.892;6.906;2024-01-27T03:53:38;4.50;1.00
18717;DHT22;9487;50.892;6.906;2024-01-27T03:56:05;4.50;1.00
18717;DHT22;9487;50.892;6.906;2024-01-27T03:58:32;4.50;1.00
18717;DHT22;9487;50.892;6.906;2024-01-27T04:00:59;4.40;1.00
18717;DHT22;9487;50.892;6.906;2024-01-27T04:03:26;4.40;1.00
18717;DHT22;9487;50.892;6.906;2024-01-27T04:05:53;4.40;1.00
18717;DHT22;9487;50.892;6.906;2024-01-27T04:08:21;4.40;1.00
18717;DHT22;9487;50.892;6.906;2024-01-27T04:10:47;4.40;1.00
18717;DHT22;9487;50.892;6.906;2024-01-27T04:13:15;4.30;1.00
18717;DHT22;9487;50.892;6.906;2024-01-27T04:15:42;4.30;1.00
18717;DHT22;9487;50.892;6.906;2024-01-27T04:18:09;4.30;1.00
18717;DHT22;9487;50.892;6.906;2024-01-27T04:20:37;4.30;1.00
18717;DHT22;9487;50.892;6.906;2024-01-27T04:23:04;4.30;1.00
18717;DHT22;9487;50.892;6.906;2024-01-27T04:25:32;4.30;1.00
18717;DHT22;9487;50.892;6.906;2024-01-27T04:27:59;4.30;1.00
18717;DHT22;9487;50.892;6.906;2024-01-27T04:30:27;4.30;1.00
18717;DHT22;9487;50.892;6.906;2024-01-27T04:32:54;4.30;1.00
18717;DHT22;9487;50.892;6.906;2024-01-27T04:35:21;4.20;1.00
18717;DHT22;9487;50.892;6.906;2024-01-27T04:37:47;4.20;1.00
18717;DHT22;9487;50.892;6.906;2024-01-27T04:40:14;4.20;1.00
18717;DHT22;9487;50.892;6.906;2024-01-27T04:42:42;4.30;1.00
18717;DHT22;9487;50.892;6.906;2024-01-27T04:45:09;4.30;1.00
18717;DHT22;9487;50.892;6.906;2024-01-27T04:47:36;4.30;1.00
18717;DHT22;9487;50.892;6.906;2024-01-27T04:50:03;4.30;1.00
18717;DHT22;9487;50.892;6.906;2024-01-27T04:52:30;4.30;1.00
18717;DHT22;9487;50.892;6.906;2024-01-27T04:54:57;4.30;1.00
18717;DHT22;9487;50.892;6.906;2024-01-27T04:57:24;4.30;1.00
18717;DHT22;9487;50.892;6.906;2024-01-27T04:59:52;4.30;1.00
18717;DHT22;9487;50.892;6.906;2024-01-27T05:02:19;4.30;1.00
18717;DHT22;9487;50.892;6.906;2024-01-27T05:04:46;4.20;1.00
18717;DHT22;9487;50.892;6.906;2024-01-27T05:07:12;4.20;1.00
18717;DHT22;9487;50.892;6.906;2024-01-27T05:09:40;4.10;1.00
18717;DHT22;9487;50.892;6.906;2024-01-27T05:12:07;4.10;1.00
18717;DHT22;9487;50.892;6.906;2024-01-27T05:14:34;4.00;1.00
18717;DHT22;9487;50.892;6.906;2024-01-27T05:17:02;4.10;1.00
18717;DHT22;9487;50.892;6.906;2024-01-27T05:19:29;4.00;1.00
18717;DHT22;9487;50.892;6.906;2024-01-27T05:21:56;3.90;1.00
18717;DHT22;9487;50.892;6.906;2024-01-27T05:24:23;4.00;1.00
18717;DHT22;9487;50.892;6.906;2024-01-27T05:26:50;4.10;1.00
18717;DHT22;9487;50.892;6.906;2024-01-27T05:29:17;4.00;1.00
18717;DHT22;9487;50.892;6.906;2024-01-27T05:31:44;3.90;1.00
18717;DHT22;9487;50.892;6.906;2024-01-27T05:34:12;3.90;1.00
18717;DHT22;9487;50.892;6.906;2024-01-27T05:36:39;3.90;1.00
18717;DHT22;9487;50.892;6.906;2024-01-27T05:39:05;3.90;1.00
18717;DHT22;9487;50.892;6.906;2024-01-27T05:41:32;3.90;1.00
18717;DHT22;9487;50.892;6.906;2024-01-27T05:43:59;3.90;1.00
18717;DHT22;9487;50.892;6.906;2024-01-27T05:46:26;3.90;1.00
18717;DHT22;9487;50.892;6.906;2024-01-27T05:48:53;3.80;1.00
18717;DHT22;9487;50.892;6.906;2024-01-27T05:51:24;3.80;1.00
18717;DHT22;9487;50.892;6.906;2024-01-27T05:53:51;3.80;1.00
18717;DHT22;9487;50.892;6.906;2024-01-27T05:56:18;3.70;1.00
18717;DHT22;9487;50.892;6.906;2024-01-27T05:58:45;3.70;1.00
18717;DHT22;9487;50.892;6.906;2024-01-27T06:01:12;3.70;1.00
18717;DHT22;9487;50.892;6.906;2024-01-27T06:03:41;3.70;1.00
18717;DHT22;9487;50.892;6.906;2024-01-27T06:06:08;3.60;1.00
18717;DHT22;9487;50.892;6.906;2024-01-27T06:08:36;3.60;1.00
18717;DHT22;9487;50.892;6.906;2024-01-27T06:11:03;3.60;1.00
18717;DHT22;9487;50.892;6.906;2024-01-27T06:13:31;3.60;1.00
18717;DHT22;9487;50.892;6.906;2024-01-27T06:16:00;3.50;1.00
18717;DHT22;9487;50.892;6.906;2024-01-27T06:18:26;3.40;1.00
18717;DHT22;9487;50.892;6.906;2024-01-27T06:20:53;3.40;1.00
18717;DHT22;9487;50.892;6.906;2024-01-27T06:23:20;3.40;1.00
18717;DHT22;9487;50.892;6.906;2024-01-27T06:25:48;3.30;1.00
18717;DHT22;9487;50.892;6.906;2024-01-27T06:28:15;3.40;1.00
18717;DHT22;9487;50.892;6.906;2024-01-27T06:30:41;3.40;1.00
18717;DHT22;9487;50.892;6.906;2024-01-27T06:33:08;3.30;1.00
18717;DHT22;9487;50.892;6.906;2024-01-27T06:35:35;3.30;1.00
18717;DHT22;9487;50.892;6.906;2024-01-27T06:38:02;3.20;1.00
18717;DHT22;9487;50.892;6.906;2024-01-27T06:40:29;3.20;1.00
18717;DHT22;9487;50.892;6.906;2024-01-27T06:42:57;3.20;1.00
18717;DHT22;9487;50.892;6.906;2024-01-27T06:45:24;3.20;1.00
18717;DHT22;9487;50.892;6.906;2024-01-27T06:47:51;3.10;1.00
18717;DHT22;9487;50.892;6.906;2024-01-27T06:50:17;3.00;1.00
18717;DHT22;9487;50.892;6.906;2024-01-27T06:52:44;3.00;1.00
18717;DHT22;9487;50.892;6.906;2024-01-27T06:55:11;3.00;1.00
18717;DHT22;9487;50.892;6.906;2024-01-27T06:57:38;3.00;1.00
18717;DHT22;9487;50.892;6.906;2024-01-27T07:00:08;3.00;1.00
18717;DHT22;9487;50.892;6.906;2024-01-27T07:02:40;3.00;1.00
18717;DHT22;9487;50.892;6.906;2024-01-27T07:05:08;2.90;1.00
18717;DHT22;9487;50.892;6.906;2024-01-27T07:07:35;3.00;1.00
18717;DHT22;9487;50.892;6.906;2024-01-27T07:10:03;3.00;1.00
18717;DHT22;9487;50.892;6.906;2024-01-27T07:12:29;3.00;1.00
18717;DHT22;9487;50.892;6.906;2024-01-27T07:14:56;3.00;1.00
18717;DHT22;9487;50.892;6.906;2024-01-27T07:17:26;3.00;1.00
18717;DHT22;9487;50.892;6.906;2024-01-27T07:19:53;2.90;1.00
18717;DHT22;9487;50.892;6.906;2024-01-27T07:22:20;2.70;1.00
18717;DHT22;9487;50.892;6.906;2024-01-27T07:24:47;2.80;1.00
18717;DHT22;9487;50.892;6.906;2024-01-27T07:27:16;2.80;1.00
18717;DHT22;9487;50.892;6.906;2024-01-27T07:29:43;2.90;1.00
18717;DHT22;9487;50.892;6.906;2024-01-27T07:32:10;2.80;1.00
18717;DHT22;9487;50.892;6.906;2024-01-27T07:34:40;2.80;1.00
18717;DHT22;9487;50.892;6.906;2024-01-27T07:37:07;2.90;1.00
18717;DHT22;9487;50.892;6.906;2024-01-27T07:39:34;2.90;1.00
18717;DHT22;9487;50.892;6.906;2024-01-27T07:42:01;2.90;1.00
18717;DHT22;9487;50.892;6.906;2024-01-27T07:44:28;3.10;1.00
18717;DHT22;9487;50.892;6.906;2024-01-27T07:46:55;3.00;1.00
18717;DHT22;9487;50.892;6.906;2024-01-27T07:49:22;3.00;1.00
18717;DHT22;9487;50.892;6.906;2024-01-27T07:51:50;3.10;1.00
18717;DHT22;9487;50.892;6.906;2024-01-27T07:54:17;3.10;1.00
18717;DHT22;9487;50.892;6.906;2024-01-27T07:56:44;3.20;1.00
18717;DHT22;9487;50.892;6.906;2024-01-27T07:59:11;3.20;1.00
18717;DHT22;9487;50.892;6.906;2024-01-27T08:01:39;3.20;1.00
18717;DHT22;9487;50.892;6.906;2024-01-27T08:04:06;3.20;1.00
18717;DHT22;9487;50.892;6.906;2024-01-27T08:06:33;3.20;1.00
18717;DHT22;9487;50.892;6.906;2024-01-27T08:09:03;3.10;1.00
18717;DHT22;9487;50.892;6.906;2024-01-27T08:11:29;3.30;1.00
18717;DHT22;9487;50.892;6.906;2024-01-27T08:13:56;3.40;1.00
18717;DHT22;9487;50.892;6.906;2024-01-27T08:16:23;3.60;1.00
18717;DHT22;9487;50.892;6.906;2024-01-27T08:18:50;3.60;1.00
18717;DHT22;9487;50.892;6.906;2024-01-27T08:21:17;3.50;1.00
18717;DHT22;9487;50.892;6.906;2024-01-27T08:23:44;3.70;1.00
18717;DHT22;9487;50.892;6.906;2024-01-27T08:26:12;3.80;1.00
18717;DHT22;9487;50.892;6.906;2024-01-27T08:28:39;3.80;1.00
18717;DHT22;9487;50.892;6.906;2024-01-27T08:31:06;3.90;1.00
18717;DHT22;9487;50.892;6.906;2024-01-27T08:33:33;3.90;1.00
18717;DHT22;9487;50.892;6.906;2024-01-27T08:35:59;4.00;1.00
18717;DHT22;9487;50.892;6.906;2024-01-27T08:38:27;5.10;99.90
18717;DHT22;9487;50.892;6.906;2024-01-27T08:40:54;6.20;99.90
18717;DHT22;9487;50.892;6.906;2024-01-27T08:43:22;6.10;95.10
18717;DHT22;9487;50.892;6.906;2024-01-27T08:45:49;5.90;51.00
18717;DHT22;9487;50.892;6.906;2024-01-27T08:48:16;5.60;12.70
18717;DHT22;9487;50.892;6.906;2024-01-27T08:50:45;5.40;1.00
18717;DHT22;9487;50.892;6.906;2024-01-27T08:53:12;5.30;1.00
18717;DHT22;9487;50.892;6.906;2024-01-27T08:55:39;5.20;1.00
18717;DHT22;9487;50.892;6.906;2024-01-27T08:58:06;5.10;1.00
18717;DHT22;9487;50.892;6.906;2024-01-27T09:00:34;5.20;1.00
18717;DHT22;9487;50.892;6.906;2024-01-27T09:03:00;5.40;1.00
18717;DHT22;9487;50.892;6.906;2024-01-27T09:05:28;5.50;1.00
18717;DHT22;9487;50.892;6.906;2024-01-27T09:07:55;5.70;1.00
18717;DHT22;9487;50.892;6.906;2024-01-27T09:10:22;5.80;1.00
18717;DHT22;9487;50.892;6.906;2024-01-27T09:12:49;5.90;1.00
18717;DHT22;9487;50.892;6.906;2024-01-27T09:15:17;6.10;1.00
18717;DHT22;9487;50.892;6.906;2024-01-27T09:17:46;6.20;1.00
18717;DHT22;9487;50.892;6.906;2024-01-27T09:20:14;6.30;1.00
18717;DHT22;9487;50.892;6.906;2024-01-27T09:22:41;6.40;1.00
18717;DHT22;9487;50.892;6.906;2024-01-27T09:25:11;6.60;1.00
18717;DHT22;9487;50.892;6.906;2024-01-27T09:27:46;6.80;1.00
18717;DHT22;9487;50.892;6.906;2024-01-27T09:30:13;6.90;1.00
18717;DHT22;9487;50.892;6.906;2024-01-27T09:32:41;7.10;1.00
18717;DHT22;9487;50.892;6.906;2024-01-27T09:35:10;7.20;99.90
18717;DHT22;9487;50.892;6.906;2024-01-27T09:37:37;7.30;99.90
18717;DHT22;9487;50.892;6.906;2024-01-27T09:40:05;7.50;99.90
18717;DHT22;9487;50.892;6.906;2024-01-27T09:42:33;7.50;99.90
18717;DHT22;9487;50.892;6.906;2024-01-27T09:45:02;7.60;1.00
18717;DHT22;9487;50.892;6.906;2024-01-27T09:47:29;7.70;1.00
18717;DHT22;9487;50.892;6.906;2024-01-27T09:50:04;7.80;99.90
18717;DHT22;9487;50.892;6.906;2024-01-27T09:52:35;7.80;99.90
18717;DHT22;9487;50.892;6.906;2024-01-27T09:55:03;7.70;1.00
18717;DHT22;9487;50.892;6.906;2024-01-27T09:57:30;7.80;99.90
18717;DHT22;9487;50.892;6.906;2024-01-27T09:59:58;7.90;99.90
18717;DHT22;9487;50.892;6.906;2024-01-27T10:02:30;7.80;1.00
18717;DHT22;9487;50.892;6.906;2024-01-27T10:04:58;7.50;99.90
18717;DHT22;9487;50.892;6.906;2024-01-27T10:07:25;7.10;99.90
18717;DHT22;9487;50.892;6.906;2024-01-27T10:09:54;7.30;99.90
18717;DHT22;9487;50.892;6.906;2024-01-27T10:12:21;7.50;99.90
18717;DHT22;9487;50.892;6.906;2024-01-27T10:14:49;7.70;99.90
18717;DHT22;9487;50.892;6.906;2024-01-27T10:17:21;7.80;99.90
18717;DHT22;9487;50.892;6.906;2024-01-27T10:19:59;7.70;99.90
18717;DHT22;9487;50.892;6.906;2024-01-27T10:22:29;7.90;99.90
18717;DHT22;9487;50.892;6.906;2024-01-27T10:24:57;8.00;99.90
18717;DHT22;9487;50.892;6.906;2024-01-27T10:27:24;8.10;60.60
18717;DHT22;9487;50.892;6.906;2024-01-27T10:29:54;8.20;1.00
18717;DHT22;9487;50.892;6.906;2024-01-27T10:32:22;8.30;1.00
18717;DHT22;9487;50.892;6.906;2024-01-27T10:35:00;8.40;1.00
18717;DHT22;9487;50.892;6.906;2024-01-27T10:37:27;8.40;1.00
18717;DHT22;9487;50.892;6.906;2024-01-27T10:40:01;8.50;99.90
18717;DHT22;9487;50.892;6.906;2024-01-27T10:42:29;8.60;99.90
18717;DHT22;9487;50.892;6.906;2024-01-27T10:44:58;8.60;99.90
18717;DHT22;9487;50.892;6.906;2024-01-27T10:47:31;8.30;99.90
18717;DHT22;9487;50.892;6.906;2024-01-27T10:50:00;8.40;1.00
18717;DHT22;9487;50.892;6.906;2024-01-27T10:52:30;8.50;99.90
18717;DHT22;9487;50.892;6.906;2024-01-27T10:54:59;8.60;99.90
18717;DHT22;9487;50.892;6.906;2024-01-27T10:57:30;8.70;99.90
18717;DHT22;9487;50.892;6.906;2024-01-27T11:00:04;8.40;1.00
18717;DHT22;9487;50.892;6.906;2024-01-27T11:02:34;8.10;99.90
18717;DHT22;9487;50.892;6.906;2024-01-27T11:05:03;8.10;99.90
18717;DHT22;9487;50.892;6.906;2024-01-27T11:07:32;8.10;1.00
18717;DHT22;9487;50.892;6.906;2024-01-27T11:09:59;8.60;1.00
18717;DHT22;9487;50.892;6.906;2024-01-27T11:12:26;8.90;1.00
18717;DHT22;9487;50.892;6.906;2024-01-27T11:14:56;9.10;1.00
18717;DHT22;9487;50.892;6.906;2024-01-27T11:17:25;9.40;1.00
18717;DHT22;9487;50.892;6.906;2024-01-27T11:19:55;9.50;99.90
18717;DHT22;9487;50.892;6.906;2024-01-27T11:22:26;9.40;1.00
18717;DHT22;9487;50.892;6.906;2024-01-27T11:24:53;9.10;1.00
18717;DHT22;9487;50.892;6.906;2024-01-27T11:27:28;8.90;1.00
18717;DHT22;9487;50.892;6.906;2024-01-27T11:29:57;8.70;1.00
18717;DHT22;9487;50.892;6.906;2024-01-27T11:32:26;8.60;99.90
18717;DHT22;9487;50.892;6.906;2024-01-27T11:34:53;8.30;1.00
18717;DHT22;9487;50.892;6.906;2024-01-27T11:37:20;8.40;99.90
18717;DHT22;9487;50.892;6.906;2024-01-27T11:39:50;8.30;99.90
18717;DHT22;9487;50.892;6.906;2024-01-27T11:42:18;8.20;1.00
18717;DHT22;9487;50.892;6.906;2024-01-27T11:44:45;8.10;99.90
18717;DHT22;9487;50.892;6.906;2024-01-27T11:47:18;8.30;99.90
18717;DHT22;9487;50.892;6.906;2024-01-27T11:49:51;8.50;1.00
18717;DHT22;9487;50.892;6.906;2024-01-27T11:52:21;8.40;99.90
18717;DHT22;9487;50.892;6.906;2024-01-27T11:54:54;8.40;41.20
18717;DHT22;9487;50.892;6.906;2024-01-27T11:57:21;8.50;99.90
18717;DHT22;9487;50.892;6.906;2024-01-27T11:59:49;8.60;98.00
18717;DHT22;9487;50.892;6.906;2024-01-27T12:02:18;8.60;99.90
18717;DHT22;9487;50.892;6.906;2024-01-27T12:04:47;8.80;1.00
18717;DHT22;9487;50.892;6.906;2024-01-27T12:07:14;8.70;1.00
18717;DHT22;9487;50.892;6.906;2024-01-27T12:09:44;8.80;1.00
18717;DHT22;9487;50.892;6.906;2024-01-27T12:12:13;8.90;1.00
18717;DHT22;9487;50.892;6.906;2024-01-27T12:14:41;9.00;1.00
18717;DHT22;9487;50.892;6.906;2024-01-27T12:17:09;9.00;1.00
18717;DHT22;9487;50.892;6.906;2024-01-27T12:19:39;9.10;1.00
18717;DHT22;9487;50.892;6.906;2024-01-27T12:22:21;9.20;1.00
18717;DHT22;9487;50.892;6.906;2024-01-27T12:24:49;9.10;1.00
18717;DHT22;9487;50.892;6.906;2024-01-27T12:27:16;9.10;99.90
18717;DHT22;9487;50.892;6.906;2024-01-27T12:29:43;9.20;99.90
18717;DHT22;9487;50.892;6.906;2024-01-27T12:32:10;9.00;1.00
18717;DHT22;9487;50.892;6.906;2024-01-27T12:34:41;9.00;1.00
18717;DHT22;9487;50.892;6.906;2024-01-27T12:37:11;9.00;99.90
18717;DHT22;9487;50.892;6.906;2024-01-27T12:39:42;9.00;99.90
18717;DHT22;9487;50.892;6.906;2024-01-27T12:42:10;9.00;99.90
18717;DHT22;9487;50.892;6.906;2024-01-27T12:44:39;9.20;5.20
18717;DHT22;9487;50.892;6.906;2024-01-27T12:47:06;9.30;1.00
18717;DHT22;9487;50.892;6.906;2024-01-27T12:49:34;9.30;99.90
18717;DHT22;9487;50.892;6.906;2024-01-27T12:52:03;9.30;99.90
18717;DHT22;9487;50.892;6.906;2024-01-27T12:54:31;9.40;99.90
18717;DHT22;9487;50.892;6.906;2024-01-27T12:56:58;9.40;99.90
18717;DHT22;9487;50.892;6.906;2024-01-27T12:59:28;9.30;1.00
18717;DHT22;9487;50.892;6.906;2024-01-27T13:01:58;9.10;1.00
18717;DHT22;9487;50.892;6.906;2024-01-27T13:04:25;9.00;99.90
18717;DHT22;9487;50.892;6.906;2024-01-27T13:06:52;9.00;1.00
18717;DHT22;9487;50.892;6.906;2024-01-27T13:09:22;9.10;99.90
18717;DHT22;9487;50.892;6.906;2024-01-27T13:11:51;9.10;1.00
18717;DHT22;9487;50.892;6.906;2024-01-27T13:14:18;9.20;1.00
18717;DHT22;9487;50.892;6.906;2024-01-27T13:16:46;9.20;1.00
18717;DHT22;9487;50.892;6.906;2024-01-27T13:19:13;9.30;1.00
18717;DHT22;9487;50.892;6.906;2024-01-27T13:21:40;9.10;99.90
18717;DHT22;9487;50.892;6.906;2024-01-27T13:24:07;9.10;1.00
18717;DHT22;9487;50.892;6.906;2024-01-27T13:26:36;9.10;99.90
18717;DHT22;9487;50.892;6.906;2024-01-27T13:29:04;9.10;46.60
18717;DHT22;9487;50.892;6.906;2024-01-27T13:31:31;9.10;1.00
18717;DHT22;9487;50.892;6.906;2024-01-27T13:33:58;9.00;1.00
18717;DHT22;9487;50.892;6.906;2024-01-27T13:36:25;8.80;99.90
18717;DHT22;9487;50.892;6.906;2024-01-27T13:38:52;8.90;1.00
18717;DHT22;9487;50.892;6.906;2024-01-27T13:41:22;9.20;99.90
18717;DHT22;9487;50.892;6.906;2024-01-27T13:43:50;9.50;42.90
18717;DHT22;9487;50.892;6.906;2024-01-27T13:46:17;9.80;99.90
18717;DHT22;9487;50.892;6.906;2024-01-27T13:48:47;10.00;1.00
18717;DHT22;9487;50.892;6.906;2024-01-27T13:51:15;10.00;99.90
18717;DHT22;9487;50.892;6.906;2024-01-27T13:53:42;10.20;56.40
18717;DHT22;9487;50.892;6.906;2024-01-27T13:56:10;10.30;99.90
18717;DHT22;9487;50.892;6.906;2024-01-27T13:58:37;10.20;99.90
18717;DHT22;9487;50.892;6.906;2024-01-27T14:01:06;10.10;99.90
18717;DHT22;9487;50.892;6.906;2024-01-27T14:03:34;10.00;91.80
18717;DHT22;9487;50.892;6.906;2024-01-27T14:06:02;9.90;1.00
18717;DHT22;9487;50.892;6.906;2024-01-27T14:08:30;9.80;1.00
18717;DHT22;9487;50.892;6.906;2024-01-27T14:10:56;9.50;99.90
18717;DHT22;9487;50.892;6.906;2024-01-27T14:13:23;9.30;1.00
18717;DHT22;9487;50.892;6.906;2024-01-27T14:15:50;9.30;1.00
18717;DHT22;9487;50.892;6.906;2024-01-27T14:18:18;9.10;1.00
18717;DHT22;9487;50.892;6.906;2024-01-27T14:20:49;9.10;1.00
18717;DHT22;9487;50.892;6.906;2024-01-27T14:23:16;9.10;1.00
18717;DHT22;9487;50.892;6.906;2024-01-27T14:25:45;9.30;99.90
18717;DHT22;9487;50.892;6.906;2024-01-27T14:28:12;9.40;99.90
18717;DHT22;9487;50.892;6.906;2024-01-27T14:30:42;9.60;99.90
18717;DHT22;9487;50.892;6.906;2024-01-27T14:33:12;9.70;1.00
18717;DHT22;9487;50.892;6.906;2024-01-27T14:35:41;9.70;99.90
18717;DHT22;9487;50.892;6.906;2024-01-27T14:38:09;9.90;99.90
18717;DHT22;9487;50.892;6.906;2024-01-27T14:40:36;9.90;59.00
18717;DHT22;9487;50.892;6.906;2024-01-27T14:43:03;9.80;1.00
18717;DHT22;9487;50.892;6.906;2024-01-27T14:45:34;9.90;99.90
18717;DHT22;9487;50.892;6.906;2024-01-27T14:48:01;10.00;1.00
18717;DHT22;9487;50.892;6.906;2024-01-27T14:50:28;9.90;99.90
18717;DHT22;9487;50.892;6.906;2024-01-27T14:52:57;9.80;99.90
18717;DHT22;9487;50.892;6.906;2024-01-27T14:55:24;9.70;1.00
18717;DHT22;9487;50.892;6.906;2024-01-27T14:57:56;9.60;99.90
18717;DHT22;9487;50.892;6.906;2024-01-27T15:00:23;9.60;99.90
18717;DHT22;9487;50.892;6.906;2024-01-27T15:02:50;9.50;99.90
18717;DHT22;9487;50.892;6.906;2024-01-27T15:05:17;9.50;99.90
18717;DHT22;9487;50.892;6.906;2024-01-27T15:07:48;9.40;1.00
18717;DHT22;9487;50.892;6.906;2024-01-27T15:10:16;9.50;99.90
18717;DHT22;9487;50.892;6.906;2024-01-27T15:12:43;9.40;99.90
18717;DHT22;9487;50.892;6.906;2024-01-27T15:15:10;9.30;1.00
18717;DHT22;9487;50.892;6.906;2024-01-27T15:17:38;9.30;99.90
18717;DHT22;9487;50.892;6.906;2024-01-27T15:20:07;9.20;1.00
18717;DHT22;9487;50.892;6.906;2024-01-27T15:22:35;9.20;99.90
18717;DHT22;9487;50.892;6.906;2024-01-27T15:25:01;9.10;1.00
18717;DHT22;9487;50.892;6.906;2024-01-27T15:27:30;9.10;1.00
18717;DHT22;9487;50.892;6.906;2024-01-27T15:29:57;9.10;1.00
18717;DHT22;9487;50.892;6.906;2024-01-27T15:32:23;9.00;1.00
18717;DHT22;9487;50.892;6.906;2024-01-27T15:34:52;8.80;1.00
18717;DHT22;9487;50.892;6.906;2024-01-27T15:37:19;8.80;1.00
18717;DHT22;9487;50.892;6.906;2024-01-27T15:39:47;8.60;1.00
18717;DHT22;9487;50.892;6.906;2024-01-27T15:42:14;8.60;1.00
18717;DHT22;9487;50.892;6.906;2024-01-27T15:44:42;8.50;99.90
18717;DHT22;9487;50.892;6.906;2024-01-27T15:47:10;8.50;1.00
18717;DHT22;9487;50.892;6.906;2024-01-27T15:49:37;8.50;1.00
18717;DHT22;9487;50.892;6.906;2024-01-27T15:52:04;8.50;99.90
18717;DHT22;9487;50.892;6.906;2024-01-27T15:54:32;8.50;99.90
18717;DHT22;9487;50.892;6.906;2024-01-27T15:57:00;8.40;1.00
18717;DHT22;9487;50.892;6.906;2024-01-27T15:59:27;8.30;45.80
18717;DHT22;9487;50.892;6.906;2024-01-27T16:01:55;8.10;99.90
18717;DHT22;9487;50.892;6.906;2024-01-27T16:04:22;8.00;99.90
18717;DHT22;9487;50.892;6.906;2024-01-27T16:06:49;8.00;99.90
18717;DHT22;9487;50.892;6.906;2024-01-27T16:09:15;8.00;99.90
18717;DHT22;9487;50.892;6.906;2024-01-27T16:11:42;7.90;1.00
18717;DHT22;9487;50.892;6.906;2024-01-27T16:14:09;7.80;1.00
18717;DHT22;9487;50.892;6.906;2024-01-27T16:16:36;7.80;1.00